Detalii statie AGROSTAR [00001CEF]

Toti senzorii

Date Temperatura solului [C]Precipitatii [mm]Voltaj baterie [mV]HC Air temperature [C]HC Relative humidity [%]Punctul de roua [C]
medieminmaxsumaultimamedieminmaxmediemediemin
2017-10-20 09:00:00 11.5 11.4 11.7 0 7040 7.18 6.06 8.19 97.54 6.6 5.7
2017-10-20 10:00:00 11.4 11.3 11.6 0 7166 9.81 8.5 11.38 84.89 7.2 6.9
2017-10-20 11:00:00 11.3 11.3 11.5 0 7284 14.25 11.81 17.96 66.12 7.7 7
2017-10-20 12:00:00 11.4 11.3 11.6 0 7274 20.73 18.69 21.96 43.68 7.7 7.4
2017-10-20 13:00:00 11.7 11.5 11.9 0 7264 22.01 21.18 22.91 41.64 8.1 7.3
2017-10-20 14:00:00 12.2 12 12.4 0 7274 22.34 21.39 23.21 36.15 6.3 5.2
2017-10-20 15:00:00 12.6 12.4 13 0 7264 21.2 20.64 22.21 35.76 5.2 4.7
2017-10-20 16:00:00 12.9 12.7 13 0 7264 20.91 20.58 21.36 35.46 4.8 4.1
2017-10-20 17:00:00 13.1 13 13.3 0 6972 18.74 15.92 20.5 42.35 5.4 4.9
2017-10-20 18:00:00 13.2 13.1 13.3 0 6914 13.5 11.6 15.46 59.47 5.5 5
2017-10-20 19:00:00 13.2 13.1 13.3 0 6884 10.47 9.05 11.89 72.81 5.6 5.3
2017-10-20 20:00:00 13.1 13.1 13.3 0 6874 8.46 7.61 8.97 82.85 5.6 5.2
2017-10-20 21:00:00 13 12.9 13.2 0 6864 7.16 6.78 7.6 87.94 5.1 4.9
2017-10-20 22:00:00 12.9 12.8 13.1 0 6854 6.4 6.01 6.86 90.52 4.8 4.6
2017-10-20 23:00:00 12.7 12.6 12.8 0 6834 5.82 5.58 6.1 92.16 4.5 4.3
2017-10-21 00:00:00 12.4 12.4 12.6 0 6834 5.35 4.95 5.71 93.66 4.3 3.9
2017-10-21 01:00:00 12.2 12.2 12.4 0 6826 4.94 4.45 5.3 94.5 4 3.5
2017-10-21 02:00:00 12.1 12 12.3 0 6816 4.78 4.41 5.14 95.3 4 3.7
2017-10-21 03:00:00 11.9 11.8 12 0 6796 4.34 4.15 4.59 95.89 3.6 3.4
2017-10-21 04:00:00 11.7 11.7 11.9 0 6786 3.95 3.7 4.22 96.52 3.3 3.1
2017-10-21 05:00:00 11.5 11.4 11.7 0 6786 3.85 3.57 4.09 97.29 3.4 3.1
2017-10-21 06:00:00 11.4 11.2 11.6 0 6776 3.08 2.44 3.75 97.54 2.6 2
2017-10-21 07:00:00 11.1 11 11.3 0 6766 2.76 2.49 3.02 97.89 2.3 2
2017-10-21 08:00:00 10.9 10.8 11.1 0 6834 2.69 1.92 3.69 98.24 2.3 1.5
2017-10-21 09:00:00 10.8 10.7 11 0 7138 5.98 4 7.65 99.12 5.7 3.7
2017-10-21 10:00:00 10.7 10.7 10.8 0 7264 9.2 7.76 10.91 88.58 7.2 6.7
2017-10-21 11:00:00 10.7 10.6 10.8 0 7284 13.73 11.17 16.97 65.98 7.2 6.3
2017-10-21 12:00:00 10.8 10.7 11 0 7274 18.85 16.69 20.23 46.78 7 6.6
2017-10-21 13:00:00 11.1 10.9 11.3 0 7264 18.45 17.49 19.81 47.46 6.9 6.3
2017-10-21 14:00:00 11.5 11.3 11.7 0 7264 17.75 17.42 18.3 50.67 7.2 6.7
2017-10-21 15:00:00 11.8 11.7 12.1 0 7264 19.17 18.32 20.08 47.31 7.5 6.8
2017-10-21 16:00:00 12.2 12.1 12.3 0 7098 17.41 16.22 18.67 52.96 7.5 7.1
2017-10-21 17:00:00 12.3 12.2 12.5 0 6942 15.48 15.01 16.1 60.6 7.7 7.6
2017-10-21 18:00:00 12.4 12.4 12.5 0 6914 13.89 12.9 14.94 67.79 7.8 7.6
2017-10-21 19:00:00 12.5 12.4 12.7 0 6884 13.41 12.81 14.03 69.71 7.8 7.6
2017-10-21 20:00:00 12.6 12.5 12.7 0 6884 13.53 12.62 14.14 68.51 7.7 7.5
2017-10-21 21:00:00 12.5 12.5 12.7 0 6864 12.44 11.78 12.98 73.77 7.7 7.5
2017-10-21 22:00:00 12.5 12.5 12.7 0 6864 11.23 11.02 11.65 81.21 7.9 7.7
2017-10-21 23:00:00 12.5 12.4 12.6 0 6844 10.71 10.4 11.11 86.32 8.4 8.2
2017-10-22 00:00:00 12.4 12.3 12.6 0 6844 10.36 10.23 10.53 88.14 8.3 8.2
2017-10-22 01:00:00 12.4 12.4 12.6 0 6816 10.31 10.17 10.49 88.46 8.3 8
2017-10-22 02:00:00 12.3 12.2 12.5 0 6816 9.73 9.09 10.35 88.85 7.8 7.5
2017-10-22 03:00:00 12.2 12.2 12.4 0 6806 8.24 7.35 8.91 93.19 7 6.2
2017-10-22 04:00:00 12.1 12.1 12.3 0 6796 6.63 5.86 7.38 96.13 5.9 5.2
2017-10-22 05:00:00 12 11.9 12.2 0 6776 5.46 5.1 5.96 97.25 4.9 4.7
2017-10-22 06:00:00 11.8 11.8 11.9 0 6776 4.63 4.22 5.08 97.89 4.2 3.9
2017-10-22 07:00:00 11.7 11.6 11.8 0 6776 3.89 3.18 4.46 98.3 3.5 2.8
2017-10-22 08:00:00 11.4 11.3 11.6 0 6864 4.11 3.15 5.14 98.82 3.8 2.8